createdAt,value
2019-05-02T00:00:25.537Z,71.80
2019-05-02T00:01:25.575Z,70.60
2019-05-02T00:02:28.783Z,69.90
2019-05-02T00:03:25.569Z,74.40
2019-05-02T00:04:25.599Z,73.40
2019-05-02T00:05:27.382Z,74.00
2019-05-02T00:06:25.612Z,73.60
2019-05-02T00:07:25.626Z,72.20
2019-05-02T00:08:29.318Z,69.90
2019-05-02T00:09:25.670Z,72.20
2019-05-02T00:10:26.061Z,67.80
2019-05-02T00:11:25.684Z,75.60
2019-05-02T00:12:25.711Z,69.20
2019-05-02T00:13:25.769Z,70.00
2019-05-02T00:14:25.718Z,71.40
2019-05-02T00:15:25.803Z,71.60
2019-05-02T00:16:25.807Z,67.40
2019-05-02T00:17:27.404Z,66.40
2019-05-02T00:18:25.772Z,69.00
2019-05-02T00:19:25.845Z,70.20
2019-05-02T00:20:27.045Z,69.00
2019-05-02T00:21:25.879Z,69.40
2019-05-02T00:22:25.890Z,68.90
2019-05-02T00:23:28.113Z,68.90
2019-05-02T00:24:25.858Z,67.10
2019-05-02T00:25:25.875Z,74.30
2019-05-02T00:26:25.922Z,69.50
2019-05-02T00:27:25.983Z,68.40
2019-05-02T00:28:25.910Z,65.50
2019-05-02T00:29:25.946Z,67.10
2019-05-02T00:30:30.044Z,73.70
2019-05-02T00:31:25.955Z,66.80
2019-05-02T00:32:26.027Z,64.80
2019-05-02T00:33:29.325Z,64.00
2019-05-02T00:34:26.001Z,65.50
2019-05-02T00:35:26.080Z,66.60
2019-05-02T00:36:26.014Z,65.20
2019-05-02T00:37:26.686Z,68.20
2019-05-02T00:38:26.050Z,69.30
2019-05-02T00:39:26.096Z,65.80
2019-05-02T00:40:27.741Z,65.90
2019-05-02T00:41:26.135Z,65.10
2019-05-02T00:42:26.126Z,67.10
2019-05-02T00:43:28.976Z,61.50
2019-05-02T00:44:26.136Z,67.40
2019-05-02T00:45:26.171Z,66.00
2019-05-02T00:46:30.283Z,68.10
2019-05-02T00:47:26.172Z,66.30
2019-05-02T00:48:26.205Z,68.20
2019-05-02T00:49:26.200Z,65.90
2019-05-02T00:50:26.220Z,65.60
2019-05-02T00:51:26.806Z,66.00
2019-05-02T00:52:26.261Z,72.30
2019-05-02T00:53:26.255Z,69.20
2019-05-02T00:54:26.322Z,71.40
2019-05-02T00:55:28.892Z,69.50
2019-05-02T00:56:26.346Z,68.20
2019-05-02T00:57:26.305Z,67.20
2019-05-02T00:58:27.366Z,67.60
2019-05-02T00:59:26.375Z,66.60
2019-05-02T01:00:26.422Z,67.50
2019-05-02T01:01:29.582Z,67.40
2019-05-02T01:02:26.379Z,65.80
2019-05-02T01:03:26.380Z,69.00
2019-05-02T01:04:27.501Z,69.30
2019-05-02T01:05:26.411Z,68.00
2019-05-02T01:06:26.427Z,69.70
2019-05-02T01:07:26.895Z,67.40
2019-05-02T01:08:26.522Z,70.70
2019-05-02T01:09:26.467Z,71.40
2019-05-02T01:10:26.479Z,68.60
2019-05-02T01:11:28.202Z,70.00
2019-05-02T01:12:26.951Z,65.80
2019-05-02T01:13:26.518Z,67.30
2019-05-02T01:14:27.226Z,67.20
2019-05-02T01:15:26.545Z,68.80
2019-05-02T01:16:26.576Z,66.20
2019-05-02T01:17:30.979Z,69.00
2019-05-02T01:18:26.585Z,64.20
2019-05-02T01:19:26.635Z,64.90
2019-05-02T01:20:27.391Z,61.90
2019-05-02T01:21:26.697Z,69.10
2019-05-02T01:22:26.638Z,63.50
2019-05-02T01:23:27.658Z,69.20
2019-05-02T01:24:26.664Z,67.00
2019-05-02T01:25:26.680Z,64.30
2019-05-02T01:26:29.245Z,67.90
2019-05-02T01:27:26.711Z,69.60
2019-05-02T01:28:26.717Z,67.60
2019-05-02T01:29:29.781Z,67.50
2019-05-02T01:30:26.794Z,65.60
2019-05-02T01:31:26.758Z,66.10
2019-05-02T01:32:30.067Z,69.10
2019-05-02T01:33:27.018Z,69.40
2019-05-02T01:34:26.942Z,65.70
2019-05-02T01:35:31.218Z,66.50
2019-05-02T01:36:26.953Z,64.30
2019-05-02T01:37:27.116Z,66.70
2019-05-02T01:38:31.877Z,67.70
2019-05-02T01:39:27.046Z,67.20
2019-05-02T01:40:26.956Z,69.40
2019-05-02T01:41:29.289Z,66.10
2019-05-02T01:42:39.366Z,67.60
2019-05-02T01:43:27.177Z,70.20
2019-05-02T01:44:31.146Z,69.10
2019-05-02T01:45:27.288Z,67.80
2019-05-02T01:46:27.197Z,66.40
2019-05-02T01:47:29.167Z,67.40
2019-05-02T01:48:27.341Z,68.40
2019-05-02T01:49:27.123Z,67.90
2019-05-02T01:50:28.911Z,72.00
2019-05-02T01:51:27.207Z,70.50
2019-05-02T01:52:27.165Z,66.40
2019-05-02T01:53:29.430Z,68.80
2019-05-02T01:54:27.202Z,68.30
2019-05-02T01:55:27.276Z,64.80
2019-05-02T01:56:28.575Z,68.50
2019-05-02T01:57:27.279Z,69.10
2019-05-02T01:58:27.448Z,68.50
2019-05-02T01:59:29.079Z,66.50
2019-05-02T02:00:27.440Z,64.60
2019-05-02T02:01:27.235Z,64.50
2019-05-02T02:02:28.070Z,65.60
2019-05-02T02:03:27.442Z,64.40
2019-05-02T02:04:27.505Z,64.50
2019-05-02T02:05:31.934Z,66.00
2019-05-02T02:06:27.434Z,64.30
2019-05-02T02:07:27.461Z,67.70
2019-05-02T02:08:32.338Z,69.10
2019-05-02T02:09:27.661Z,66.80
2019-05-02T02:10:27.432Z,64.70
2019-05-02T02:11:28.328Z,67.50
2019-05-02T02:12:27.504Z,63.70
2019-05-02T02:13:31.151Z,64.50
2019-05-02T02:14:27.616Z,64.50
2019-05-02T02:15:29.085Z,65.10
2019-05-02T02:16:27.581Z,65.90
2019-05-02T02:17:27.531Z,66.80
2019-05-02T02:18:29.330Z,64.80
2019-05-02T02:19:27.658Z,69.00
2019-05-02T02:20:27.538Z,64.70
2019-05-02T02:21:27.756Z,70.40
2019-05-02T02:22:27.573Z,65.60
2019-05-02T02:23:27.673Z,71.10
2019-05-02T02:24:27.677Z,63.40
2019-05-02T02:25:32.096Z,66.90
2019-05-02T02:26:27.589Z,67.10
2019-05-02T02:27:27.812Z,65.30
2019-05-02T02:28:32.011Z,61.50
2019-05-02T02:29:27.898Z,65.60
2019-05-02T02:30:27.803Z,63.80
2019-05-02T02:31:27.813Z,65.20
2019-05-02T02:32:28.688Z,65.50
2019-05-02T02:33:27.756Z,64.00
2019-05-02T02:34:29.904Z,64.00
2019-05-02T02:35:27.757Z,65.80
2019-05-02T02:36:34.172Z,64.60
2019-05-02T02:37:27.851Z,61.40
2019-05-02T02:38:33.783Z,62.00
2019-05-02T02:39:27.986Z,63.00
2019-05-02T02:40:33.352Z,63.10
2019-05-02T02:41:27.898Z,67.60
2019-05-02T02:42:31.657Z,70.20
2019-05-02T02:43:34.204Z,64.80
2019-05-02T02:44:33.449Z,70.50
2019-05-02T02:45:28.136Z,70.70
2019-05-02T02:46:30.873Z,68.90
2019-05-02T02:47:28.043Z,71.50
2019-05-02T02:49:27.994Z,74.70
2019-05-02T02:50:28.113Z,66.20
2019-05-02T02:51:28.074Z,64.40
2019-05-02T02:52:27.956Z,64.50
2019-05-02T02:53:28.045Z,62.10
2019-05-02T02:54:28.100Z,61.90
2019-05-02T02:55:28.049Z,55.80
2019-05-02T02:56:28.366Z,62.40
2019-05-02T02:57:28.504Z,63.60
2019-05-02T03:28:44.782Z,60.20
2019-05-02T03:29:44.107Z,81.10
2019-05-02T03:30:38.059Z,75.80
2019-05-02T03:31:37.669Z,80.70
2019-05-02T03:32:37.617Z,77.60
2019-05-02T03:33:51.774Z,78.00
2019-05-02T03:34:47.841Z,75.00
2019-05-02T03:35:44.004Z,82.90
2019-05-02T03:36:37.524Z,74.00
2019-05-02T03:37:37.619Z,72.40
2019-05-02T03:38:37.630Z,71.00
2019-05-02T03:39:37.679Z,72.60
2019-05-02T03:40:38.919Z,74.70
2019-05-02T03:41:37.491Z,73.70
2019-05-02T03:42:44.418Z,77.80
2019-05-02T03:43:37.042Z,75.20
2019-05-02T03:44:37.076Z,75.40
2019-05-02T03:45:40.195Z,73.10
2019-05-02T03:46:37.125Z,70.70
2019-05-02T03:47:43.979Z,72.90
2019-05-02T03:48:37.103Z,74.60
2019-05-02T03:49:41.051Z,73.10
2019-05-02T03:50:37.136Z,73.70
2019-05-02T03:51:37.196Z,75.20
2019-05-02T03:52:43.618Z,79.30
2019-05-02T03:53:37.156Z,72.30
2019-05-02T03:54:49.076Z,75.10
2019-05-02T03:55:37.197Z,73.90
2019-05-02T03:56:37.220Z,76.20
2019-05-02T03:57:41.644Z,74.10
2019-05-02T03:58:37.231Z,70.70
2019-05-02T03:59:39.269Z,78.40
2019-05-02T04:00:37.244Z,74.90
2019-05-02T04:01:41.414Z,81.20
2019-05-02T04:02:37.267Z,78.00
2019-05-02T04:03:41.058Z,73.20
2019-05-02T04:04:37.338Z,74.20
2019-05-02T04:05:40.514Z,73.40
2019-05-02T04:06:37.363Z,74.80
2019-05-02T04:07:40.454Z,77.30
2019-05-02T04:08:37.396Z,79.90
2019-05-02T04:09:40.030Z,77.10
2019-05-02T04:10:37.439Z,74.00
2019-05-02T04:11:38.999Z,78.70
2019-05-02T04:12:37.416Z,74.80
2019-05-02T04:13:38.205Z,76.20
2019-05-02T04:14:38.817Z,74.00
2019-05-02T04:15:37.602Z,78.40
2019-05-02T04:16:37.496Z,75.20
2019-05-02T04:17:37.524Z,76.30
2019-05-02T04:18:37.523Z,79.90
2019-05-02T04:19:37.589Z,76.80
2019-05-02T04:20:37.518Z,78.60
2019-05-02T04:21:37.565Z,82.50
2019-05-02T04:22:42.890Z,79.00
2019-05-02T04:23:37.565Z,79.60
2019-05-02T04:24:37.567Z,77.60
2019-05-02T04:25:37.589Z,78.80
2019-05-02T04:26:37.592Z,80.80
2019-05-02T04:27:37.664Z,78.70
2019-05-02T04:28:37.661Z,77.60
2019-05-02T04:29:37.659Z,78.70
2019-05-02T04:30:37.649Z,77.90
2019-05-02T04:31:37.665Z,77.60
2019-05-02T04:32:37.670Z,77.60
2019-05-02T04:33:37.777Z,79.40
2019-05-02T04:34:37.700Z,79.30
2019-05-02T04:35:37.721Z,79.30
2019-05-02T04:36:37.777Z,81.70
2019-05-02T04:37:41.411Z,82.30
2019-05-02T04:38:44.351Z,81.70
2019-05-02T04:39:39.043Z,80.30
2019-05-02T04:40:41.808Z,81.40
2019-05-02T04:41:39.231Z,79.30
2019-05-02T04:42:39.317Z,80.50
2019-05-02T04:43:43.083Z,79.20
2019-05-02T04:44:44.366Z,80.00
2019-05-02T04:45:51.957Z,83.00
2019-05-02T04:46:38.810Z,83.70
2019-05-02T04:47:39.033Z,80.70
2019-05-02T04:48:43.782Z,77.70
2019-05-02T04:49:39.269Z,78.80
2019-05-02T04:50:37.996Z,81.50
2019-05-02T04:51:38.280Z,81.60
2019-05-02T04:52:47.367Z,82.00
2019-05-02T04:53:42.276Z,86.50
2019-05-02T04:54:38.856Z,86.50
2019-05-02T04:55:38.240Z,86.30
2019-05-02T04:56:42.168Z,89.80
2019-05-02T04:57:46.848Z,89.20
2019-05-02T04:58:40.711Z,89.10
2019-05-02T04:59:39.471Z,85.40
2019-05-02T05:00:39.187Z,86.40
2019-05-02T05:01:43.394Z,88.30
2019-05-02T05:02:39.979Z,86.30
2019-05-02T05:03:38.091Z,85.90
2019-05-02T05:04:41.925Z,85.20
2019-05-02T05:05:40.332Z,90.50
2019-05-02T05:06:40.909Z,88.20
2019-05-02T05:07:43.800Z,88.20
2019-05-02T05:08:38.898Z,89.40
2019-05-02T05:09:39.834Z,95.60
2019-05-02T05:10:41.406Z,89.00
2019-05-02T05:11:38.232Z,87.70
2019-05-02T05:12:41.843Z,87.70
2019-05-02T05:13:38.236Z,88.80
2019-05-02T05:14:42.887Z,91.70
2019-05-02T05:15:46.542Z,87.30
2019-05-02T05:16:40.025Z,85.60
2019-05-02T05:17:38.375Z,87.00
2019-05-02T05:18:38.307Z,88.70
2019-05-02T05:19:38.404Z,90.50
2019-05-02T05:20:40.397Z,87.10
2019-05-02T05:21:38.456Z,87.20
2019-05-02T05:22:44.273Z,88.40
2019-05-02T05:23:38.371Z,90.00
2019-05-02T05:24:42.173Z,85.50
2019-05-02T05:25:38.413Z,89.20
2019-05-02T05:26:42.737Z,87.50
2019-05-02T05:27:38.435Z,89.70
2019-05-02T05:28:40.523Z,90.60
2019-05-02T05:29:38.460Z,89.20
2019-05-02T05:30:45.223Z,87.00
2019-05-02T05:31:38.534Z,84.00
2019-05-02T05:32:38.524Z,86.30
2019-05-02T05:33:38.515Z,87.10
2019-05-02T05:34:38.612Z,87.60
2019-05-02T05:35:38.649Z,88.70
2019-05-02T05:36:38.558Z,88.60
2019-05-02T05:37:43.226Z,84.30
2019-05-02T05:38:40.629Z,89.20
2019-05-02T05:39:43.151Z,85.10
2019-05-02T05:40:38.656Z,85.80
2019-05-02T05:41:42.711Z,87.50
2019-05-02T05:42:38.664Z,88.50
2019-05-02T05:43:38.739Z,86.80
2019-05-02T05:44:39.956Z,89.60
2019-05-02T05:45:50.725Z,89.00
2019-05-02T05:46:42.401Z,87.10
2019-05-02T05:47:38.742Z,88.60
2019-05-02T05:48:40.768Z,93.10
2019-05-02T05:49:38.779Z,89.30
2019-05-02T05:50:41.366Z,90.30
2019-05-02T05:51:38.787Z,89.10
2019-05-02T05:52:42.439Z,92.90
2019-05-02T05:53:38.839Z,86.80
2019-05-02T05:54:41.947Z,90.30
2019-05-02T05:55:38.853Z,88.40
2019-05-02T05:56:42.891Z,91.60
2019-05-02T05:57:38.905Z,92.10
2019-05-02T05:58:39.868Z,85.40
2019-05-02T05:59:38.931Z,90.50
2019-05-02T06:00:38.945Z,88.50
2019-05-02T06:01:38.950Z,91.50
2019-05-02T06:02:52.748Z,90.10
2019-05-02T06:03:44.619Z,92.30
2019-05-02T06:05:40.964Z,93.60
2019-05-02T06:06:39.680Z,91.10
2019-05-02T06:07:41.867Z,88.40
2019-05-02T06:08:39.130Z,87.30
2019-05-02T06:09:39.071Z,87.60
2019-05-02T06:10:43.773Z,94.10
2019-05-02T06:12:00.140Z,89.40
2019-05-02T06:12:39.114Z,89.40
2019-05-02T06:13:42.981Z,88.40
2019-05-02T06:14:39.182Z,91.10
2019-05-02T06:15:40.443Z,88.00
2019-05-02T06:16:39.202Z,89.60
2019-05-02T06:18:04.761Z,90.00
2019-05-02T06:18:41.817Z,84.50
2019-05-02T06:19:39.228Z,91.20
2019-05-02T06:20:39.354Z,87.40
2019-05-02T06:21:39.929Z,88.00
2019-05-02T06:22:39.287Z,87.30
2019-05-02T06:24:00.323Z,93.50
2019-05-02T06:24:39.322Z,91.20
2019-05-02T06:25:42.403Z,87.30
2019-05-02T06:26:39.389Z,84.70
2019-05-02T06:27:39.395Z,89.30
2019-05-02T06:28:41.642Z,89.40
2019-05-02T06:30:00.429Z,92.80
2019-05-02T06:30:40.220Z,88.50
2019-05-02T06:31:43.038Z,90.70
2019-05-02T06:32:40.104Z,92.10
2019-05-02T06:33:39.461Z,90.30
2019-05-02T06:34:46.396Z,92.40
2019-05-02T06:36:01.471Z,88.30
2019-05-02T06:36:39.538Z,90.80
2019-05-02T06:37:40.817Z,90.00
2019-05-02T06:38:39.553Z,90.10
2019-05-02T06:39:39.585Z,89.50
2019-05-02T06:40:44.876Z,89.50
2019-05-02T06:42:00.641Z,89.70
2019-05-02T06:42:39.658Z,88.40
2019-05-02T06:43:41.099Z,85.20
2019-05-02T06:44:39.633Z,84.10
2019-05-02T06:45:39.748Z,81.20
2019-05-02T06:46:39.670Z,78.10
2019-05-02T06:48:01.229Z,81.60
2019-05-02T06:48:39.703Z,77.70
2019-05-02T06:49:39.714Z,78.40
2019-05-02T06:50:40.610Z,77.10
2019-05-02T06:51:39.754Z,72.80
2019-05-02T06:52:39.771Z,71.50
2019-05-02T06:54:00.921Z,68.60
2019-05-02T06:54:39.789Z,68.40
